createdAt,value
2022-09-05T00:00:04.137Z,69.29
2022-09-05T00:01:04.263Z,49.15
2022-09-05T00:02:04.418Z,48.02
2022-09-05T00:03:05.450Z,51.40
2022-09-05T00:04:14.951Z,48.98
2022-09-05T00:05:06.019Z,55.11
2022-09-05T00:06:05.262Z,69.45
2022-09-05T00:07:05.433Z,48.34
2022-09-05T00:08:05.555Z,50.43
2022-09-05T00:09:05.676Z,69.29
2022-09-05T00:10:06.786Z,55.59
2022-09-05T00:11:40.710Z,71.38
2022-09-05T00:12:07.145Z,48.50
2022-09-05T00:13:08.131Z,53.01
2022-09-05T00:14:06.562Z,77.34
2022-09-05T00:15:16.559Z,52.53
2022-09-05T00:16:08.326Z,47.70
2022-09-05T00:17:07.790Z,52.05
2022-09-05T00:20:40.753Z,53.17
2022-09-05T00:24:11.016Z,74.28
2022-09-05T00:24:28.844Z,50.76
2022-09-05T00:24:29.930Z,48.50
2022-09-05T00:24:31.148Z,49.79
2022-09-05T00:24:31.662Z,73.15
2022-09-05T00:24:36.939Z,49.63
2022-09-05T00:26:10.739Z,47.53
2022-09-05T00:27:08.850Z,51.88
2022-09-05T00:28:25.484Z,49.15
2022-09-05T00:29:10.179Z,47.86
2022-09-05T00:31:06.643Z,49.63
2022-09-05T00:31:55.346Z,48.82
2022-09-05T00:32:10.621Z,48.82
2022-09-05T00:33:16.974Z,69.77
2022-09-05T00:34:10.919Z,69.93
2022-09-05T00:35:10.803Z,50.43
2022-09-05T00:36:10.282Z,53.01
2022-09-05T00:37:11.294Z,58.65
2022-09-05T00:38:11.810Z,74.12
2022-09-05T00:39:10.808Z,60.26
2022-09-05T00:40:17.453Z,63.97
2022-09-05T00:41:12.304Z,50.92
2022-09-05T00:42:11.811Z,52.21
2022-09-05T00:43:11.428Z,68.80
2022-09-05T00:44:11.570Z,76.54
2022-09-05T00:45:14.575Z,53.50
2022-09-05T00:46:13.033Z,49.15
2022-09-05T00:47:12.150Z,72.99
2022-09-05T00:48:12.797Z,71.87
2022-09-05T00:49:12.435Z,49.95
2022-09-05T00:50:13.050Z,57.36
2022-09-05T00:51:13.300Z,73.64
2022-09-05T00:52:13.826Z,49.15
2022-09-05T00:53:13.045Z,50.76
2022-09-05T00:54:13.305Z,54.62
2022-09-05T00:55:14.300Z,69.93
2022-09-05T00:56:13.685Z,51.72
2022-09-05T00:57:14.991Z,53.50
2022-09-05T00:58:13.957Z,49.95
2022-09-05T00:59:14.108Z,75.09
2022-09-05T01:00:17.676Z,63.00
2022-09-05T01:01:20.846Z,50.60
2022-09-05T01:02:15.745Z,52.05
2022-09-05T01:03:14.894Z,53.01
2022-09-05T01:04:15.313Z,52.05
2022-09-05T01:05:15.809Z,51.88
2022-09-05T01:06:15.217Z,54.30
2022-09-05T01:07:16.306Z,52.53
2022-09-05T01:08:15.547Z,51.40
2022-09-05T01:09:15.719Z,52.37
2022-09-05T01:10:16.855Z,54.46
2022-09-05T01:11:17.078Z,57.04
2022-09-05T01:12:16.326Z,68.48
2022-09-05T01:13:16.459Z,52.05
2022-09-05T01:14:16.583Z,54.79
2022-09-05T01:15:16.719Z,66.71
2022-09-05T01:16:17.016Z,58.01
2022-09-05T01:17:17.110Z,67.35
2022-09-05T01:18:17.242Z,50.27
2022-09-05T01:19:17.372Z,49.47
2022-09-05T01:20:19.535Z,75.41
2022-09-05T01:21:17.666Z,48.02
2022-09-05T01:22:17.829Z,56.88
2022-09-05T01:23:17.968Z,74.12
2022-09-05T01:24:18.095Z,50.43
2022-09-05T01:25:19.328Z,52.21
2022-09-05T01:26:18.565Z,64.61
2022-09-05T01:27:18.728Z,53.66
2022-09-05T01:29:15.738Z,56.72
2022-09-05T01:29:20.178Z,55.43
2022-09-05T01:30:20.813Z,51.88
2022-09-05T01:31:19.604Z,70.58
2022-09-05T01:32:19.823Z,53.82
2022-09-05T01:33:19.903Z,54.62
2022-09-05T01:34:31.176Z,53.17
2022-09-05T01:35:21.833Z,73.64
2022-09-05T01:36:20.297Z,61.39
2022-09-05T01:37:26.562Z,54.14
2022-09-05T01:38:21.642Z,54.79
2022-09-05T01:40:11.819Z,53.50
2022-09-05T01:40:22.119Z,69.77
2022-09-05T01:41:21.881Z,53.17
2022-09-05T01:42:21.433Z,53.50
2022-09-05T01:43:21.660Z,53.66
2022-09-05T01:44:21.826Z,72.67
2022-09-05T01:45:23.880Z,57.36
2022-09-05T01:46:23.208Z,77.50
2022-09-05T01:47:31.096Z,53.98
2022-09-05T01:48:23.649Z,52.85
2022-09-05T01:49:22.703Z,57.85
2022-09-05T01:50:22.892Z,59.78
2022-09-05T01:51:29.561Z,68.96
2022-09-05T01:52:24.274Z,54.79
2022-09-05T01:53:24.573Z,55.43
2022-09-05T01:54:25.743Z,63.33
2022-09-05T01:55:24.744Z,54.46
2022-09-05T01:56:23.929Z,69.45
2022-09-05T01:57:24.098Z,53.17
2022-09-05T01:58:24.819Z,74.60
2022-09-05T01:59:24.492Z,71.70
2022-09-05T02:00:24.663Z,77.18
2022-09-05T02:01:32.360Z,73.96
2022-09-05T02:02:26.908Z,72.51
2022-09-05T02:03:26.001Z,54.62
2022-09-05T02:04:25.437Z,76.54
2022-09-05T02:05:48.236Z,68.32
2022-09-05T02:06:26.730Z,71.38
2022-09-05T02:07:30.797Z,56.07
2022-09-05T02:08:27.193Z,61.07
2022-09-05T02:09:26.292Z,75.57
2022-09-05T02:10:27.329Z,73.15
2022-09-05T02:11:35.461Z,78.47
2022-09-05T02:12:27.806Z,54.79
2022-09-05T02:13:26.924Z,52.85
2022-09-05T02:14:34.359Z,69.13
2022-09-05T02:15:28.425Z,55.27
2022-09-05T02:16:27.445Z,71.54
2022-09-05T02:17:51.199Z,78.96
2022-09-05T02:18:28.829Z,77.02
2022-09-05T02:19:28.061Z,73.80
2022-09-05T02:20:29.187Z,75.73
2022-09-05T02:21:28.432Z,69.29
2022-09-05T02:22:28.844Z,55.27
2022-09-05T02:23:40.627Z,68.64
2022-09-05T02:24:29.826Z,57.36
2022-09-05T02:26:00.724Z,68.00
2022-09-05T02:26:30.110Z,79.92
2022-09-05T02:27:46.130Z,75.25
2022-09-05T02:28:30.496Z,73.32
2022-09-05T02:29:30.042Z,69.29
2022-09-05T02:30:31.337Z,73.15
2022-09-05T02:31:30.049Z,74.60
2022-09-05T02:32:30.833Z,71.38
2022-09-05T02:33:30.247Z,72.99
2022-09-05T02:34:30.848Z,70.42
2022-09-05T02:35:30.610Z,72.83
2022-09-05T02:36:30.772Z,73.15
2022-09-05T02:39:24.071Z,73.96
2022-09-05T02:40:59.882Z,71.54
2022-09-05T02:45:00.260Z,65.90
2022-09-05T02:45:07.357Z,68.96
2022-09-05T02:45:09.926Z,75.41
2022-09-05T02:45:10.557Z,71.38
2022-09-05T02:45:10.981Z,72.99
2022-09-05T02:45:17.867Z,69.29
2022-09-05T02:45:33.699Z,53.82
2022-09-05T02:46:33.465Z,76.05
2022-09-05T02:47:32.815Z,74.12
2022-09-05T02:48:33.838Z,74.12
2022-09-05T02:51:04.162Z,74.93
2022-09-05T02:53:30.101Z,78.15
2022-09-05T02:55:58.787Z,74.93
2022-09-05T02:57:24.796Z,74.28
2022-09-05T02:57:40.615Z,76.22
2022-09-05T02:57:40.619Z,73.32
2022-09-05T02:57:43.080Z,60.91
2022-09-05T02:57:46.797Z,64.29
2022-09-05T02:58:05.586Z,75.57
2022-09-05T02:59:05.805Z,73.96
2022-09-05T02:59:37.030Z,75.89
2022-09-05T03:00:35.131Z,76.54
2022-09-05T03:01:35.374Z,75.25
2022-09-05T03:02:35.458Z,70.09
2022-09-05T03:03:35.736Z,76.86
2022-09-05T03:04:35.869Z,80.57
2022-09-05T03:05:36.108Z,73.15
2022-09-05T03:06:36.258Z,79.44
2022-09-05T03:07:36.363Z,71.38
2022-09-05T03:08:37.345Z,77.99
2022-09-05T03:09:36.703Z,74.44
2022-09-05T03:10:53.399Z,74.60
2022-09-05T03:11:38.360Z,72.19
2022-09-05T03:12:37.192Z,76.70
2022-09-05T03:13:37.360Z,77.67
2022-09-05T03:14:38.453Z,73.64
2022-09-05T03:15:37.663Z,73.48
2022-09-05T03:16:44.936Z,77.02
2022-09-05T03:17:39.119Z,75.57
2022-09-05T03:18:38.392Z,76.54
2022-09-05T03:19:46.243Z,77.18
2022-09-05T03:20:40.349Z,76.86
2022-09-05T03:21:38.944Z,77.99
2022-09-05T03:22:39.088Z,77.99
2022-09-05T03:23:39.241Z,76.70
2022-09-05T03:24:39.397Z,76.70
2022-09-05T03:25:40.347Z,75.73
2022-09-05T03:26:39.709Z,76.22
2022-09-05T03:27:40.870Z,73.96
2022-09-05T03:28:40.131Z,79.28
2022-09-05T03:29:40.854Z,78.15
2022-09-05T03:30:40.563Z,75.89
2022-09-05T03:31:40.729Z,74.12
2022-09-05T03:32:42.155Z,76.86
2022-09-05T03:33:41.087Z,74.60
2022-09-05T03:34:41.230Z,76.22
2022-09-05T03:35:42.360Z,76.22
2022-09-05T03:36:41.583Z,81.86
2022-09-05T03:37:41.765Z,76.54
2022-09-05T03:38:43.335Z,79.92
2022-09-05T03:39:43.902Z,78.47
2022-09-05T03:40:43.359Z,77.67
2022-09-05T03:41:42.606Z,76.05
2022-09-05T03:42:42.724Z,76.86
2022-09-05T03:43:43.856Z,83.14
2022-09-05T03:44:43.856Z,76.70
2022-09-05T03:45:43.367Z,76.38
2022-09-05T03:46:43.579Z,77.18
2022-09-05T03:47:44.359Z,75.41
2022-09-05T03:48:43.860Z,77.99
2022-09-05T03:55:52.840Z,77.34
2022-09-05T03:57:07.291Z,76.22
2022-09-05T03:57:08.773Z,73.96
2022-09-05T03:57:15.326Z,77.67
2022-09-05T03:57:18.915Z,78.15
2022-09-05T03:57:22.672Z,78.47
2022-09-05T03:57:23.883Z,79.44
2022-09-05T03:57:27.636Z,70.58
2022-09-05T03:57:46.645Z,76.70
2022-09-05T03:59:01.244Z,82.34
2022-09-05T03:59:48.103Z,76.22
2022-09-05T04:00:46.867Z,78.63
2022-09-05T04:03:23.619Z,75.89
2022-09-05T04:08:05.988Z,73.48
2022-09-05T04:08:17.614Z,77.18
2022-09-05T04:08:19.348Z,71.06
2022-09-05T04:08:24.860Z,74.93
2022-09-05T04:08:27.805Z,76.05
2022-09-05T04:08:31.291Z,72.35
2022-09-05T04:08:49.641Z,77.02
2022-09-05T04:09:51.463Z,77.18
2022-09-05T04:10:49.327Z,76.22
2022-09-05T04:11:48.867Z,76.05
2022-09-05T04:12:48.629Z,77.18
2022-09-05T04:13:48.776Z,81.69
2022-09-05T04:14:48.919Z,74.28
2022-09-05T04:15:53.451Z,77.67
2022-09-05T04:16:49.332Z,77.67
2022-09-05T04:17:49.521Z,77.67
2022-09-05T04:18:49.666Z,75.41
2022-09-05T04:19:50.841Z,76.05
2022-09-05T04:20:50.005Z,77.02
2022-09-05T04:21:50.169Z,75.57
2022-09-05T04:22:50.313Z,76.38
2022-09-05T04:23:50.466Z,75.73
2022-09-05T04:24:50.644Z,79.44
2022-09-05T04:25:50.882Z,78.47
2022-09-05T04:26:52.015Z,80.24
2022-09-05T04:27:51.876Z,72.51
2022-09-05T04:28:53.515Z,75.09
2022-09-05T04:29:51.461Z,76.54
2022-09-05T04:30:52.378Z,76.38
2022-09-05T04:32:07.421Z,78.15
2022-09-05T04:32:54.767Z,75.09
2022-09-05T04:33:53.874Z,76.22
2022-09-05T04:34:52.363Z,76.70
2022-09-05T04:35:52.539Z,77.67
2022-09-05T04:36:53.376Z,77.34
2022-09-05T04:37:52.941Z,80.24
2022-09-05T04:38:53.122Z,76.54
2022-09-05T04:39:54.008Z,78.63
2022-09-05T04:40:53.522Z,74.60
2022-09-05T04:41:53.695Z,78.47
2022-09-05T04:42:53.845Z,76.70
2022-09-05T04:43:54.881Z,75.41
2022-09-05T04:44:55.860Z,71.22
2022-09-05T04:45:54.583Z,78.79
2022-09-05T04:46:55.376Z,77.67
2022-09-05T04:47:55.375Z,74.77
2022-09-05T04:48:55.022Z,75.41
2022-09-05T04:49:55.176Z,76.54
2022-09-05T04:50:55.367Z,77.50
2022-09-05T04:52:00.253Z,80.24
2022-09-05T04:52:56.738Z,76.38
2022-09-05T04:53:55.988Z,77.83
2022-09-05T04:54:56.127Z,77.50
2022-09-05T04:55:56.270Z,75.25
2022-09-05T04:56:57.387Z,77.02
2022-09-05T04:57:57.383Z,77.50
2022-09-05T04:59:55.307Z,75.73
2022-09-05T05:05:58.189Z,77.67
2022-09-05T05:06:00.912Z,76.54
2022-09-05T05:06:11.229Z,76.86
2022-09-05T05:06:14.654Z,75.57
2022-09-05T05:06:16.665Z,77.83
2022-09-05T05:06:16.910Z,78.47
2022-09-05T05:06:31.535Z,76.22
2022-09-05T05:07:06.072Z,77.50
2022-09-05T05:08:00.542Z,75.73
2022-09-05T05:08:58.733Z,75.41
2022-09-05T05:11:10.240Z,78.63
2022-09-05T05:15:00.100Z,77.34
2022-09-05T05:17:55.747Z,76.22
2022-09-05T05:17:55.923Z,76.54
2022-09-05T05:18:01.817Z,78.31
2022-09-05T05:18:07.470Z,77.83
2022-09-05T05:18:08.954Z,78.31
2022-09-05T05:18:13.565Z,75.73
2022-09-05T05:18:42.391Z,77.18
2022-09-05T05:19:07.232Z,76.70
2022-09-05T05:20:42.840Z,76.22
2022-09-05T05:21:02.009Z,74.77
2022-09-05T05:22:01.180Z,76.70
2022-09-05T05:23:07.994Z,76.54
2022-09-05T05:24:02.523Z,74.28
2022-09-05T05:25:02.394Z,77.18
2022-09-05T05:26:01.987Z,78.63
2022-09-05T05:27:02.145Z,77.99
2022-09-05T05:28:02.890Z,74.12
2022-09-05T05:29:03.489Z,75.57
2022-09-05T05:30:02.717Z,78.96
2022-09-05T05:31:02.859Z,78.15
2022-09-05T05:32:03.076Z,74.28
2022-09-05T05:33:03.202Z,74.12
2022-09-05T05:34:03.879Z,74.77
2022-09-05T05:35:03.471Z,75.57
2022-09-05T05:36:03.612Z,76.86
2022-09-05T05:37:03.904Z,75.89
2022-09-05T05:38:03.903Z,79.44
2022-09-05T05:39:04.903Z,74.93
2022-09-05T05:40:04.333Z,74.28
2022-09-05T05:41:04.909Z,73.96
2022-09-05T05:42:20.273Z,75.89
2022-09-05T05:43:06.396Z,76.70
2022-09-05T05:44:05.026Z,76.38
2022-09-05T05:45:05.202Z,77.02
2022-09-05T05:46:08.317Z,76.38
2022-09-05T05:47:05.918Z,75.73
2022-09-05T05:48:06.401Z,77.99
2022-09-05T05:49:05.795Z,77.50
2022-09-05T05:50:11.309Z,77.83
2022-09-05T05:51:07.095Z,81.37
2022-09-05T05:52:06.413Z,76.54
2022-09-05T05:53:06.919Z,75.89
2022-09-05T05:54:06.586Z,77.67
2022-09-05T05:55:50.184Z,74.28
2022-09-05T05:56:07.924Z,75.25
2022-09-05T05:57:10.156Z,76.70
2022-09-05T05:58:08.899Z,74.12
2022-09-05T05:59:07.414Z,75.73
2022-09-05T06:00:07.633Z,77.18
2022-09-05T06:01:09.459Z,75.25
2022-09-05T06:02:08.978Z,77.02
2022-09-05T06:03:25.852Z,75.41
2022-09-05T06:04:09.147Z,76.22
2022-09-05T06:05:08.276Z,76.22
2022-09-05T06:06:08.426Z,75.57
2022-09-05T06:07:09.960Z,77.99
2022-09-05T06:09:18.397Z,76.54
2022-09-05T06:14:49.155Z,76.05
2022-09-05T06:14:49.679Z,78.47
2022-09-05T06:14:51.352Z,75.89
2022-09-05T06:14:55.064Z,77.18
2022-09-05T06:14:57.619Z,74.28
2022-09-05T06:15:03.988Z,75.41
2022-09-05T06:15:14.161Z,75.09
2022-09-05T06:16:12.303Z,76.70
2022-09-05T06:17:10.419Z,75.41
2022-09-05T06:18:10.562Z,77.02
2022-09-05T06:19:11.744Z,76.86
2022-09-05T06:21:35.955Z,76.05
2022-09-05T06:22:10.358Z,73.32
2022-09-05T06:22:15.002Z,72.51
2022-09-05T06:23:28.841Z,75.41
2022-09-05T06:24:12.553Z,76.22
2022-09-05T06:25:16.655Z,76.70
2022-09-05T06:26:12.795Z,77.67
2022-09-05T06:27:11.931Z,76.54
2022-09-05T06:28:19.545Z,79.76
2022-09-05T06:29:13.329Z,77.18
2022-09-05T06:30:12.448Z,77.18
2022-09-05T06:31:29.499Z,76.54
2022-09-05T06:32:14.479Z,76.54
2022-09-05T06:33:12.855Z,74.93
2022-09-05T06:34:30.907Z,75.73
2022-09-05T06:35:14.936Z,80.24
2022-09-05T06:36:13.445Z,75.25
2022-09-05T06:37:13.607Z,74.12
2022-09-05T06:38:13.935Z,74.44
2022-09-05T06:39:14.924Z,75.89
2022-09-05T06:40:14.181Z,74.93
2022-09-05T06:41:14.326Z,75.73
2022-09-05T06:42:26.812Z,79.28
2022-09-05T06:43:15.928Z,74.28
2022-09-05T06:44:14.773Z,74.93
2022-09-05T06:45:27.516Z,73.15
2022-09-05T06:46:24.134Z,73.64
2022-09-05T06:47:23.975Z,76.54
2022-09-05T06:48:23.863Z,78.15
2022-09-05T06:49:29.736Z,75.25
2022-09-05T06:50:27.241Z,73.15
2022-09-05T06:51:17.084Z,77.02
2022-09-05T06:52:29.368Z,81.05
2022-09-05T06:53:20.058Z,74.60
2022-09-05T06:54:16.595Z,74.60
2022-09-05T06:55:16.727Z,76.38
2022-09-05T06:56:25.405Z,77.83
2022-09-05T06:57:18.015Z,75.09
2022-09-05T06:58:17.159Z,76.22
2022-09-05T06:59:17.937Z,76.54
2022-09-05T07:00:21.739Z,74.44
2022-09-05T07:01:17.761Z,74.44
2022-09-05T07:02:18.506Z,72.35
2022-09-05T07:03:19.010Z,73.48
2022-09-05T07:05:14.591Z,77.99
2022-09-05T07:05:37.489Z,75.57
2022-09-05T07:06:20.393Z,75.09
2022-09-05T07:07:18.651Z,77.99
2022-09-05T07:08:34.918Z,72.67
2022-09-05T07:09:20.010Z,77.18
2022-09-05T07:10:37.386Z,73.32
2022-09-05T07:11:22.431Z,76.22
2022-09-05T07:12:20.428Z,72.67
2022-09-05T07:13:19.913Z,73.80
2022-09-05T07:14:19.936Z,73.32
2022-09-05T07:15:20.631Z,74.77
2022-09-05T07:16:26.636Z,73.48
2022-09-05T07:17:21.939Z,74.44
2022-09-05T07:18:21.431Z,72.03
2022-09-05T07:19:20.754Z,75.73
2022-09-05T07:22:53.793Z,73.96
2022-09-05T07:24:09.849Z,73.80
2022-09-05T07:24:55.600Z,74.12
2022-09-05T07:25:53.802Z,72.83
2022-09-05T07:26:54.595Z,75.09
2022-09-05T07:28:29.223Z,75.41
2022-09-05T07:28:55.389Z,73.64
2022-09-05T07:30:01.214Z,74.93
2022-09-05T07:30:55.742Z,74.12
2022-09-05T07:31:55.025Z,76.70
2022-09-05T07:32:55.150Z,77.02
2022-09-05T07:33:55.928Z,74.44
2022-09-05T07:34:55.557Z,75.25
2022-09-05T07:35:56.430Z,75.57
2022-09-05T07:37:13.829Z,73.48
2022-09-05T07:37:57.183Z,75.09
2022-09-05T07:39:12.216Z,74.93
2022-09-05T07:39:58.582Z,76.38
2022-09-05T07:40:57.750Z,74.93
2022-09-05T07:41:57.453Z,75.41
2022-09-05T07:43:09.034Z,73.96
2022-09-05T07:43:58.348Z,75.73
2022-09-05T07:44:57.460Z,74.28
2022-09-05T07:45:58.478Z,74.12
2022-09-05T07:46:57.741Z,76.70
2022-09-05T07:47:57.863Z,76.22
2022-09-05T07:48:58.034Z,73.15
2022-09-05T07:53:40.894Z,78.15
2022-09-05T07:56:47.272Z,74.60
2022-09-05T07:56:52.991Z,74.12
2022-09-05T07:56:56.184Z,72.67
2022-09-05T07:56:56.297Z,73.80
2022-09-05T07:57:00.085Z,77.18
2022-09-05T07:57:10.066Z,74.77
2022-09-05T07:57:31.965Z,70.58
2022-09-05T07:58:02.443Z,74.44
2022-09-05T07:58:59.951Z,76.70
2022-09-05T08:00:00.942Z,72.03
2022-09-05T08:01:00.393Z,73.64
2022-09-05T08:02:01.444Z,73.80
2022-09-05T08:03:00.959Z,76.54
2022-09-05T08:04:05.689Z,78.31
2022-09-05T08:05:02.030Z,77.34
2022-09-05T08:06:01.112Z,73.48
2022-09-05T08:07:46.879Z,74.12
2022-09-05T08:08:02.512Z,74.28
2022-09-05T08:09:21.397Z,74.12
2022-09-05T08:10:06.406Z,72.19
2022-09-05T08:11:22.800Z,75.09
2022-09-05T08:12:09.793Z,79.76
2022-09-05T08:13:23.993Z,73.32
2022-09-05T08:14:40.434Z,76.86
2022-09-05T08:15:03.783Z,71.06
2022-09-05T08:16:13.707Z,76.70
2022-09-05T08:17:04.088Z,76.22
2022-09-05T08:18:03.186Z,73.15
2022-09-05T08:19:03.389Z,75.25
2022-09-05T08:20:08.623Z,89.27
2022-09-05T08:21:03.832Z,73.64
2022-09-05T08:22:03.977Z,73.80
2022-09-05T08:23:04.948Z,77.67
2022-09-05T08:24:06.993Z,75.73
2022-09-05T08:25:05.447Z,73.32
2022-09-05T08:26:04.592Z,72.83
2022-09-05T08:27:04.802Z,73.64
2022-09-05T08:28:05.940Z,73.32
2022-09-05T08:29:05.070Z,73.80
2022-09-05T08:30:25.001Z,72.99
2022-09-05T08:31:06.442Z,74.28
2022-09-05T08:32:05.589Z,75.57
2022-09-05T08:33:11.358Z,75.57
2022-09-05T08:34:06.965Z,72.99
2022-09-05T08:35:06.104Z,75.73
2022-09-05T08:36:06.295Z,75.41
2022-09-05T08:37:06.483Z,75.89
2022-09-05T08:38:06.634Z,74.28
2022-09-05T08:39:06.821Z,76.38
2022-09-05T08:40:10.970Z,75.25
2022-09-05T08:41:07.133Z,74.44
2022-09-05T08:42:07.966Z,77.99
2022-09-05T08:46:36.771Z,75.25
2022-09-05T08:46:41.707Z,74.77
2022-09-05T08:46:43.350Z,77.67
2022-09-05T08:46:47.106Z,77.18
2022-09-05T08:47:09.160Z,74.28
2022-09-05T08:48:08.231Z,88.14
2022-09-05T08:49:12.355Z,72.83
2022-09-05T08:50:10.465Z,72.67
2022-09-05T08:51:08.748Z,75.57
2022-09-05T08:52:08.962Z,77.02
2022-09-05T08:53:18.691Z,105.70
2022-09-05T08:54:10.960Z,74.77
2022-09-05T08:55:09.444Z,75.73
2022-09-05T08:56:09.604Z,75.73
2022-09-05T08:57:09.764Z,75.57
2022-09-05T08:58:10.508Z,73.48
2022-09-05T08:59:32.142Z,73.96
2022-09-05T09:00:20.265Z,77.18
2022-09-05T09:01:12.022Z,72.99
2022-09-05T09:02:47.378Z,74.44
2022-09-05T09:03:11.983Z,74.28
2022-09-05T09:04:11.970Z,71.70
2022-09-05T09:05:14.291Z,73.32
2022-09-05T09:06:14.951Z,72.35
2022-09-05T09:07:47.107Z,76.70
2022-09-05T09:08:15.838Z,72.51
2022-09-05T09:09:11.989Z,73.80
2022-09-05T09:10:12.999Z,72.19
2022-09-05T09:11:13.481Z,72.83
2022-09-05T09:12:12.501Z,76.70
2022-09-05T09:13:12.656Z,76.70
2022-09-05T09:14:14.869Z,73.64
2022-09-05T09:15:14.944Z,75.09
2022-09-05T09:16:13.097Z,74.44
2022-09-05T09:17:13.310Z,72.83
2022-09-05T09:18:13.972Z,73.15
2022-09-05T09:19:14.497Z,75.57
2022-09-05T09:20:13.822Z,83.63
2022-09-05T09:21:14.476Z,72.99
2022-09-05T09:22:14.488Z,73.96
2022-09-05T09:23:32.356Z,73.96
2022-09-05T09:24:14.437Z,76.22
2022-09-05T09:25:16.610Z,70.90
2022-09-05T09:26:15.477Z,71.54
2022-09-05T09:27:14.987Z,74.77
2022-09-05T09:28:48.150Z,76.54
2022-09-05T09:29:16.980Z,73.80
2022-09-05T09:30:15.460Z,73.32
2022-09-05T09:31:15.669Z,75.41
2022-09-05T09:32:16.478Z,76.38
2022-09-05T09:33:16.013Z,78.79
2022-09-05T09:34:16.482Z,72.99
2022-09-05T09:35:16.357Z,80.73
2022-09-05T09:36:16.500Z,74.77
2022-09-05T09:37:16.630Z,74.28
2022-09-05T09:38:16.829Z,73.32
2022-09-05T09:39:38.398Z,74.44
2022-09-05T09:40:18.129Z,71.87
2022-09-05T09:41:17.493Z,74.93
2022-09-05T09:42:32.273Z,72.19
2022-09-05T09:43:18.730Z,78.15
2022-09-05T09:44:17.995Z,74.28
2022-09-05T09:45:23.044Z,75.73
2022-09-05T09:46:19.418Z,74.77
2022-09-05T09:47:18.522Z,73.15
2022-09-05T09:48:18.641Z,76.05
2022-09-05T09:49:23.395Z,76.22
2022-09-05T09:50:18.982Z,72.51
2022-09-05T09:51:19.153Z,73.48
2022-09-05T09:52:21.301Z,75.25
2022-09-05T09:53:19.584Z,73.80
2022-09-05T09:54:19.792Z,74.12
2022-09-05T09:55:21.224Z,71.87
2022-09-05T09:56:21.220Z,74.12
2022-09-05T09:57:20.421Z,73.15
2022-09-05T09:58:20.717Z,75.89
2022-09-05T09:59:20.754Z,73.80
2022-09-05T10:00:20.932Z,74.93
2022-09-05T10:01:36.078Z,72.51
2022-09-05T10:04:01.288Z,71.87
2022-09-05T10:07:36.832Z,73.96
2022-09-05T10:10:32.452Z,74.77
2022-09-05T10:10:33.790Z,71.87
2022-09-05T10:10:46.651Z,72.03
2022-09-05T10:10:49.222Z,72.51
2022-09-05T10:10:53.338Z,72.03
2022-09-05T10:10:55.575Z,74.77
2022-09-05T10:10:56.270Z,72.99
2022-09-05T10:11:52.035Z,77.99
2022-09-05T10:13:25.563Z,72.83
2022-09-05T10:14:45.032Z,73.15
2022-09-05T10:15:31.586Z,73.48
2022-09-05T10:16:24.778Z,75.09
2022-09-05T10:17:23.949Z,73.96
2022-09-05T10:18:24.506Z,71.22
2022-09-05T10:20:07.987Z,74.93
2022-09-05T10:20:29.485Z,72.35
2022-09-05T10:21:25.631Z,72.67
2022-09-05T10:22:40.086Z,71.87
2022-09-05T10:23:27.037Z,74.77
2022-09-05T10:24:26.144Z,73.32
2022-09-05T10:25:27.908Z,72.67
2022-09-05T10:26:27.513Z,66.71
2022-09-05T10:27:25.600Z,72.19
2022-09-05T10:28:25.743Z,72.35
2022-09-05T10:29:36.960Z,74.12
2022-09-05T10:30:51.678Z,71.38
2022-09-05T10:33:54.104Z,74.60
2022-09-05T10:34:35.769Z,72.99
2022-09-05T10:35:16.836Z,72.67
2022-09-05T10:35:21.222Z,71.38
2022-09-05T10:35:29.524Z,75.73
2022-09-05T10:36:27.375Z,77.18
2022-09-05T10:37:27.583Z,74.12
2022-09-05T10:38:28.502Z,74.93
2022-09-05T10:39:28.047Z,72.35
2022-09-05T10:40:28.149Z,72.03
2022-09-05T10:41:28.328Z,75.89
2022-09-05T10:42:29.016Z,73.15
2022-09-05T10:43:29.508Z,73.32
2022-09-05T10:44:29.013Z,74.77
2022-09-05T10:45:33.426Z,74.28
2022-09-05T10:46:51.752Z,72.51
2022-09-05T10:47:32.083Z,70.09
2022-09-05T10:48:30.049Z,75.89
2022-09-05T10:49:30.688Z,71.22
2022-09-05T10:50:30.028Z,74.60
2022-09-05T10:51:30.086Z,71.38
2022-09-05T10:52:30.257Z,74.12
2022-09-05T10:53:39.565Z,72.83
2022-09-05T10:54:31.583Z,72.83
2022-09-05T10:55:30.719Z,76.22
2022-09-05T10:56:30.873Z,72.67
2022-09-05T10:57:32.011Z,74.77
2022-09-05T11:02:04.704Z,72.67
2022-09-05T11:02:15.950Z,69.45
2022-09-05T11:02:20.876Z,75.41
2022-09-05T11:02:29.925Z,70.09
2022-09-05T11:02:38.240Z,71.38
2022-09-05T11:03:34.153Z,70.90
2022-09-05T11:04:33.034Z,71.87
2022-09-05T11:05:33.589Z,75.41
2022-09-05T11:06:33.520Z,68.96
2022-09-05T11:07:32.916Z,69.77
2022-09-05T11:08:33.079Z,72.51
2022-09-05T11:09:34.018Z,72.83
2022-09-05T11:10:33.404Z,75.73
2022-09-05T11:11:34.701Z,73.15
2022-09-05T11:12:33.793Z,74.60
2022-09-05T11:13:34.037Z,74.60
2022-09-05T11:14:35.027Z,71.70
2022-09-05T11:15:34.370Z,71.38
2022-09-05T11:16:35.048Z,74.60
2022-09-05T11:17:35.522Z,72.35
2022-09-05T11:18:56.284Z,74.93
2022-09-05T11:19:36.025Z,73.15
2022-09-05T11:20:35.953Z,71.54
2022-09-05T11:21:35.305Z,75.25
2022-09-05T11:22:35.483Z,71.70
2022-09-05T11:23:36.523Z,72.83
2022-09-05T11:24:35.793Z,73.15
2022-09-05T11:25:40.026Z,76.70
2022-09-05T11:26:36.076Z,73.32
2022-09-05T11:27:37.028Z,73.96
2022-09-05T11:28:37.745Z,74.93
2022-09-05T11:29:37.662Z,73.64
2022-09-05T11:30:38.664Z,73.32
2022-09-05T11:32:22.435Z,74.93
2022-09-05T11:34:09.395Z,73.64
2022-09-05T11:36:11.785Z,74.44
2022-09-05T11:39:52.305Z,71.06
2022-09-05T11:39:54.160Z,72.99
2022-09-05T11:39:58.053Z,77.18
2022-09-05T11:39:59.172Z,73.15
2022-09-05T11:40:04.007Z,76.05
2022-09-05T11:40:07.645Z,73.96
2022-09-05T11:40:59.157Z,73.64
2022-09-05T11:41:41.195Z,72.83
2022-09-05T11:42:39.337Z,72.35
2022-09-05T11:43:40.034Z,73.64
2022-09-05T11:44:39.719Z,78.15
2022-09-05T11:45:39.885Z,72.19
2022-09-05T11:46:40.080Z,71.22
2022-09-05T11:47:44.361Z,72.35
2022-09-05T11:48:43.186Z,76.54
2022-09-05T11:49:41.703Z,73.48
2022-09-05T11:50:40.824Z,72.35
2022-09-05T11:51:41.539Z,73.96
2022-09-05T11:52:41.186Z,71.87
2022-09-05T11:53:41.428Z,72.35
2022-09-05T11:54:42.052Z,86.04
2022-09-05T11:55:41.826Z,76.05
2022-09-05T11:56:45.675Z,73.32
2022-09-05T11:57:42.202Z,76.70
2022-09-05T11:58:44.793Z,74.60
2022-09-05T11:59:44.940Z,71.54
2022-09-05T12:00:42.639Z,74.60
2022-09-05T12:01:44.109Z,74.28
2022-09-05T12:02:44.070Z,72.83
2022-09-05T12:03:59.236Z,71.06
2022-09-05T12:04:44.547Z,75.41
2022-09-05T12:05:50.592Z,74.77
2022-09-05T12:06:48.105Z,72.03
2022-09-05T12:07:45.033Z,75.73
2022-09-05T12:08:44.542Z,77.67
2022-09-05T12:09:44.341Z,75.89
2022-09-05T12:10:47.865Z,80.89
2022-09-05T12:11:45.570Z,77.34
2022-09-05T12:12:45.545Z,73.48
2022-09-05T12:13:45.101Z,71.87
2022-09-05T12:14:49.400Z,75.09
2022-09-05T12:16:07.324Z,71.54
2022-09-05T12:16:46.630Z,71.87
2022-09-05T12:17:45.794Z,77.83
2022-09-05T12:18:45.976Z,72.83
2022-09-05T12:19:46.130Z,76.70
2022-09-05T12:20:47.048Z,74.44
2022-09-05T12:21:46.575Z,78.63
2022-09-05T12:22:46.790Z,72.67
2022-09-05T12:24:24.230Z,74.12
2022-09-05T12:25:25.414Z,70.90
2022-09-05T12:27:37.123Z,72.51
2022-09-05T12:27:40.033Z,72.35
2022-09-05T12:27:55.829Z,71.22
2022-09-05T12:29:29.306Z,71.06
2022-09-05T12:29:52.150Z,74.44
2022-09-05T12:31:07.155Z,73.32
2022-09-05T12:33:11.418Z,74.12
2022-09-05T12:35:46.991Z,71.70
2022-09-05T12:36:06.056Z,73.64
2022-09-05T12:36:06.284Z,71.70
2022-09-05T12:36:08.276Z,76.86
2022-09-05T12:40:38.458Z,73.32
2022-09-05T12:40:54.996Z,74.77
2022-09-05T12:40:55.324Z,70.90
2022-09-05T12:41:01.155Z,74.12
2022-09-05T12:41:42.755Z,73.96
2022-09-05T12:42:09.877Z,72.67
2022-09-05T12:42:55.967Z,72.19
2022-09-05T12:44:36.787Z,72.51
2022-09-05T12:44:52.071Z,72.03
2022-09-05T12:46:50.930Z,75.73
2022-09-05T12:47:51.119Z,72.35
2022-09-05T12:48:52.060Z,72.67
2022-09-05T12:49:52.198Z,75.25
2022-09-05T12:50:52.059Z,72.19
2022-09-05T12:51:52.562Z,71.54
2022-09-05T12:52:51.991Z,71.87
2022-09-05T12:53:52.169Z,74.93
2022-09-05T12:54:56.538Z,72.99
2022-09-05T12:56:12.095Z,72.51
2022-09-05T13:00:43.860Z,73.64
2022-09-05T13:02:55.185Z,74.44
2022-09-05T13:02:56.792Z,73.64
2022-09-05T13:03:01.345Z,73.15